createdAt,value
2019-03-31T00:00:52.275Z,8.00
2019-03-31T00:03:22.265Z,8.00
2019-03-31T00:05:52.210Z,8.00
2019-03-31T00:08:22.190Z,7.90
2019-03-31T00:10:52.146Z,7.80
2019-03-31T00:13:22.140Z,7.70
2019-03-31T00:15:52.086Z,7.60
2019-03-31T00:18:22.070Z,7.70
2019-03-31T00:20:52.052Z,7.60
2019-03-31T00:23:22.009Z,7.60
2019-03-31T00:25:53.621Z,7.60
2019-03-31T00:28:23.577Z,7.60
2019-03-31T00:30:54.086Z,7.40
2019-03-31T00:33:24.036Z,7.40
2019-03-31T00:35:54.188Z,7.30
2019-03-31T00:38:24.135Z,7.30
2019-03-31T00:40:54.107Z,7.30
2019-03-31T00:43:24.072Z,7.20
2019-03-31T00:45:54.038Z,7.10
2019-03-31T00:48:24.001Z,6.90
2019-03-31T00:50:53.966Z,6.80
2019-03-31T00:53:23.924Z,6.80
2019-03-31T00:55:53.899Z,6.70
2019-03-31T00:58:23.861Z,6.70
2019-03-31T01:01:01.239Z,6.60
2019-03-31T01:03:34.731Z,6.60
2019-03-31T01:06:05.340Z,6.70
2019-03-31T01:08:35.692Z,6.50
2019-03-31T01:11:10.286Z,6.50
2019-03-31T01:13:40.838Z,6.50
2019-03-31T01:16:12.769Z,6.30
2019-03-31T01:18:43.289Z,6.40
2019-03-31T01:21:13.326Z,6.40
2019-03-31T01:23:43.346Z,6.40
2019-03-31T01:26:15.213Z,6.20
2019-03-31T01:28:45.223Z,6.30
2019-03-31T01:31:15.197Z,6.30
2019-03-31T01:33:45.147Z,6.20
2019-03-31T01:36:16.087Z,6.20
2019-03-31T01:38:46.049Z,6.20
2019-03-31T01:41:16.366Z,6.20
2019-03-31T01:43:46.319Z,6.20
2019-03-31T01:46:18.499Z,6.10
2019-03-31T01:48:48.452Z,6.10
2019-03-31T01:51:18.432Z,6.10
2019-03-31T01:53:48.382Z,6.00
2019-03-31T01:56:18.762Z,6.00
2019-03-31T01:58:48.711Z,6.00
2019-03-31T02:01:19.854Z,5.90
2019-03-31T02:03:49.803Z,5.90
2019-03-31T02:06:19.778Z,5.90
2019-03-31T02:08:49.724Z,6.00
2019-03-31T02:11:19.704Z,5.90
2019-03-31T02:13:49.665Z,5.90
2019-03-31T02:16:19.630Z,6.00
2019-03-31T02:18:49.578Z,6.00
2019-03-31T02:21:19.551Z,6.10
2019-03-31T02:23:49.512Z,6.10
2019-03-31T02:26:19.488Z,6.10
2019-03-31T02:28:49.439Z,6.10
2019-03-31T02:31:19.422Z,6.20
2019-03-31T02:33:49.379Z,6.20
2019-03-31T02:36:19.362Z,6.10
2019-03-31T02:38:49.317Z,6.10
2019-03-31T02:41:19.291Z,6.10
2019-03-31T02:43:49.239Z,6.20
2019-03-31T02:46:19.213Z,6.20
2019-03-31T02:48:49.179Z,6.30
2019-03-31T02:51:19.333Z,6.30
2019-03-31T02:53:49.286Z,6.30
2019-03-31T02:56:19.823Z,6.40
2019-03-31T02:58:51.810Z,6.40
2019-03-31T03:01:24.433Z,6.40
2019-03-31T03:03:55.728Z,6.50
2019-03-31T03:06:27.737Z,6.50
2019-03-31T03:08:59.135Z,6.50
2019-03-31T03:11:31.460Z,6.50
2019-03-31T03:14:03.862Z,6.50
2019-03-31T03:16:33.820Z,6.50
2019-03-31T03:19:04.430Z,6.50
2019-03-31T03:21:34.500Z,6.40
2019-03-31T03:24:04.526Z,6.40
2019-03-31T03:26:34.501Z,6.40
2019-03-31T03:29:04.446Z,6.50
2019-03-31T03:31:34.432Z,6.50
2019-03-31T03:34:04.397Z,6.50
2019-03-31T03:36:34.359Z,6.40
2019-03-31T03:39:06.731Z,6.50
2019-03-31T03:41:36.771Z,6.50
2019-03-31T03:44:06.722Z,6.50
2019-03-31T03:46:36.700Z,6.50
2019-03-31T03:49:06.686Z,6.60
2019-03-31T03:51:36.687Z,6.50
2019-03-31T03:54:06.716Z,6.50
2019-03-31T03:56:36.755Z,6.40
2019-03-31T03:59:06.715Z,6.50
2019-03-31T04:01:36.740Z,6.40
2019-03-31T04:04:06.745Z,6.50
2019-03-31T04:06:36.716Z,6.50
2019-03-31T04:09:07.748Z,6.40
2019-03-31T04:11:37.712Z,6.40
2019-03-31T04:14:07.674Z,6.30
2019-03-31T04:16:37.644Z,6.30
2019-03-31T04:19:08.570Z,6.20
2019-03-31T04:21:38.535Z,6.20
2019-03-31T04:24:08.498Z,6.20
2019-03-31T04:26:38.466Z,6.20
2019-03-31T04:29:08.421Z,6.20
2019-03-31T04:31:38.407Z,6.20
2019-03-31T04:34:09.438Z,6.10
2019-03-31T04:36:39.413Z,6.00
2019-03-31T04:39:09.359Z,6.00
2019-03-31T04:41:39.345Z,6.00
2019-03-31T04:44:09.291Z,5.90
2019-03-31T04:46:39.267Z,5.80
2019-03-31T04:49:09.220Z,5.80
2019-03-31T04:51:39.223Z,5.80
2019-03-31T04:54:09.184Z,5.80
2019-03-31T04:56:39.228Z,5.70
2019-03-31T04:59:09.183Z,5.60
2019-03-31T05:01:39.169Z,5.40
2019-03-31T05:04:09.227Z,5.40
2019-03-31T05:06:39.200Z,5.40
2019-03-31T05:09:09.157Z,5.40
2019-03-31T05:11:39.136Z,5.60
2019-03-31T05:14:09.090Z,5.90
2019-03-31T05:16:39.081Z,6.20
2019-03-31T05:19:09.032Z,6.30
2019-03-31T05:21:39.011Z,6.60
2019-03-31T05:24:08.963Z,6.80
2019-03-31T05:26:38.935Z,6.90
2019-03-31T05:29:08.883Z,7.10
2019-03-31T05:31:38.854Z,7.20
2019-03-31T05:34:19.096Z,7.30
2019-03-31T05:36:40.402Z,7.40
2019-03-31T05:39:10.360Z,7.40
2019-03-31T05:41:40.347Z,7.50
2019-03-31T05:44:10.304Z,7.60
2019-03-31T05:46:40.285Z,7.60
2019-03-31T05:49:10.352Z,7.60
2019-03-31T05:51:40.302Z,7.70
2019-03-31T05:54:10.261Z,7.80
2019-03-31T05:56:40.244Z,7.90
2019-03-31T05:59:10.192Z,8.00
2019-03-31T06:01:40.179Z,8.10
2019-03-31T06:04:10.137Z,8.20
2019-03-31T06:06:40.211Z,8.30
2019-03-31T06:09:10.173Z,8.30
2019-03-31T06:11:40.152Z,8.40
2019-03-31T06:14:10.099Z,8.50
2019-03-31T06:16:40.084Z,8.40
2019-03-31T06:19:10.030Z,8.50
2019-03-31T06:21:40.008Z,8.60
2019-03-31T06:24:10.008Z,8.70
2019-03-31T06:26:39.948Z,8.80
2019-03-31T06:29:09.909Z,8.80
2019-03-31T06:31:39.884Z,8.80
2019-03-31T06:34:09.863Z,8.80
2019-03-31T06:36:40.251Z,8.90
2019-03-31T06:39:10.312Z,8.90
2019-03-31T06:41:40.328Z,9.00
2019-03-31T06:44:10.327Z,9.10
2019-03-31T06:46:40.302Z,9.10
2019-03-31T06:49:10.518Z,9.20
2019-03-31T06:51:40.784Z,9.30
2019-03-31T06:54:10.844Z,9.40
2019-03-31T06:56:40.814Z,9.40
2019-03-31T06:59:10.751Z,9.50
2019-03-31T07:01:40.756Z,9.60
2019-03-31T07:04:10.712Z,9.70
2019-03-31T07:06:40.692Z,9.70
2019-03-31T07:09:10.671Z,9.80
2019-03-31T07:11:40.631Z,9.90
2019-03-31T07:14:10.624Z,10.00
2019-03-31T07:16:40.583Z,10.00
2019-03-31T07:19:10.569Z,10.10
2019-03-31T07:21:40.527Z,10.10
2019-03-31T07:24:10.561Z,10.10
2019-03-31T07:26:40.521Z,10.20
2019-03-31T07:29:10.506Z,10.20
2019-03-31T07:31:40.467Z,10.30
2019-03-31T07:34:11.414Z,10.30
2019-03-31T07:36:41.386Z,10.40
2019-03-31T07:39:11.511Z,10.40
2019-03-31T07:41:41.539Z,10.50
2019-03-31T07:44:15.164Z,10.50
2019-03-31T07:46:43.217Z,10.60
2019-03-31T07:49:13.204Z,10.60
2019-03-31T07:51:43.170Z,10.70
2019-03-31T07:54:13.245Z,10.80
2019-03-31T07:56:45.038Z,10.80
2019-03-31T07:59:15.017Z,10.90
2019-03-31T08:01:44.998Z,11.00
2019-03-31T08:04:15.002Z,11.00
2019-03-31T08:06:44.961Z,11.00
2019-03-31T08:09:14.942Z,11.00
2019-03-31T08:11:44.915Z,11.00
2019-03-31T08:14:14.905Z,10.90
2019-03-31T08:16:44.875Z,10.90
2019-03-31T08:19:14.872Z,10.90
2019-03-31T08:21:44.823Z,10.90
2019-03-31T08:24:14.803Z,10.90
2019-03-31T08:26:44.765Z,10.90
2019-03-31T08:29:14.748Z,10.90
2019-03-31T08:31:44.707Z,10.90
2019-03-31T08:34:14.691Z,10.90
2019-03-31T08:36:44.652Z,11.00
2019-03-31T08:39:14.646Z,10.90
2019-03-31T08:41:44.604Z,11.00
2019-03-31T08:44:14.587Z,11.00
2019-03-31T08:46:44.551Z,10.90
2019-03-31T08:49:14.535Z,11.00
2019-03-31T08:51:44.500Z,11.00
2019-03-31T08:54:14.482Z,11.00
2019-03-31T08:56:44.442Z,11.10
2019-03-31T08:59:14.423Z,11.10
2019-03-31T09:01:45.155Z,11.10
2019-03-31T09:04:15.140Z,11.00
2019-03-31T09:06:45.100Z,11.10
2019-03-31T09:09:15.082Z,11.00
2019-03-31T09:11:45.043Z,11.00
2019-03-31T09:14:15.023Z,11.00
2019-03-31T09:16:44.984Z,11.10
2019-03-31T09:19:15.078Z,11.10
2019-03-31T09:21:45.031Z,11.20
2019-03-31T09:24:15.006Z,11.30
2019-03-31T09:26:44.975Z,11.30
2019-03-31T09:29:14.947Z,11.20
2019-03-31T09:31:44.901Z,11.30
2019-03-31T09:34:14.879Z,11.40
2019-03-31T09:36:44.845Z,11.40
2019-03-31T09:39:14.832Z,11.20
2019-03-31T09:41:44.802Z,11.40
2019-03-31T09:44:14.892Z,11.40
2019-03-31T09:46:44.839Z,11.40
2019-03-31T09:49:14.822Z,11.30
2019-03-31T09:51:44.789Z,11.20
2019-03-31T09:54:14.768Z,11.30
2019-03-31T09:56:44.735Z,11.40
2019-03-31T09:59:14.716Z,11.40
2019-03-31T10:01:44.679Z,11.40
2019-03-31T10:04:14.650Z,11.40
2019-03-31T10:06:44.611Z,11.40
2019-03-31T10:09:14.596Z,11.30
2019-03-31T10:11:44.555Z,11.30
2019-03-31T10:14:14.535Z,11.40
2019-03-31T10:16:44.504Z,11.40
2019-03-31T10:19:14.483Z,11.40
2019-03-31T10:21:44.458Z,11.50
2019-03-31T10:24:14.423Z,11.60
2019-03-31T10:26:44.382Z,11.50
2019-03-31T10:29:14.355Z,11.70
2019-03-31T10:31:44.321Z,11.80
2019-03-31T10:34:14.377Z,11.80
2019-03-31T10:36:45.113Z,11.80
2019-03-31T10:39:15.211Z,11.70
2019-03-31T10:41:45.328Z,11.70
2019-03-31T10:44:15.479Z,11.70
2019-03-31T10:46:45.469Z,11.60
2019-03-31T10:49:15.540Z,11.70
2019-03-31T10:51:45.598Z,11.70
2019-03-31T10:54:15.574Z,11.80
2019-03-31T10:56:45.540Z,11.80
2019-03-31T10:59:16.486Z,11.90
2019-03-31T11:01:46.520Z,12.00
2019-03-31T11:04:16.505Z,12.00
2019-03-31T11:06:58.260Z,12.10
2019-03-31T11:09:18.116Z,12.20
2019-03-31T11:11:48.072Z,12.50
2019-03-31T11:14:18.055Z,12.50
2019-03-31T11:16:48.016Z,12.60
2019-03-31T11:19:17.995Z,12.60
2019-03-31T11:21:49.592Z,12.40
2019-03-31T11:24:19.580Z,12.40
2019-03-31T11:26:49.548Z,12.30
2019-03-31T11:29:19.531Z,12.30
2019-03-31T11:31:49.498Z,12.20
2019-03-31T11:34:19.847Z,11.90
2019-03-31T11:36:49.884Z,11.90
2019-03-31T11:39:19.876Z,12.00
2019-03-31T11:41:49.846Z,12.10
2019-03-31T11:44:19.835Z,12.20
2019-03-31T11:46:50.252Z,12.10
2019-03-31T11:49:21.025Z,12.00
2019-03-31T11:51:51.786Z,12.20
2019-03-31T11:54:21.794Z,12.20
2019-03-31T11:56:51.754Z,12.30
2019-03-31T11:59:22.330Z,12.60
2019-03-31T12:01:53.573Z,12.90
2019-03-31T12:04:24.316Z,12.90
2019-03-31T12:06:55.246Z,12.80
2019-03-31T12:09:25.842Z,12.90
2019-03-31T12:11:56.087Z,12.90
2019-03-31T12:14:26.104Z,12.90
2019-03-31T12:16:56.491Z,13.00
2019-03-31T12:19:27.409Z,13.00
2019-03-31T12:21:58.531Z,13.00
2019-03-31T12:24:29.012Z,13.00
2019-03-31T12:26:59.792Z,13.00
2019-03-31T12:29:29.815Z,13.00
2019-03-31T12:32:00.306Z,12.80
2019-03-31T12:34:30.390Z,12.90
2019-03-31T12:37:01.708Z,13.00
2019-03-31T12:39:33.833Z,12.70
2019-03-31T12:42:04.612Z,13.00
2019-03-31T12:44:36.310Z,12.80
2019-03-31T12:47:07.749Z,12.80
2019-03-31T12:49:38.364Z,12.70
2019-03-31T12:52:09.187Z,12.50
2019-03-31T12:54:39.997Z,12.20
2019-03-31T12:57:11.636Z,12.10
2019-03-31T12:59:43.266Z,12.10
2019-03-31T13:02:14.057Z,12.20
2019-03-31T13:04:44.779Z,12.30
2019-03-31T13:07:15.196Z,12.30
2019-03-31T13:09:45.867Z,12.30
2019-03-31T13:12:15.882Z,12.20
2019-03-31T13:14:45.862Z,12.20
2019-03-31T13:17:15.831Z,12.10
2019-03-31T13:19:45.812Z,12.10
2019-03-31T13:22:15.767Z,12.10
2019-03-31T13:24:45.755Z,12.20
2019-03-31T13:27:15.798Z,12.10
2019-03-31T13:29:45.794Z,12.20
2019-03-31T13:32:15.761Z,12.20
2019-03-31T13:34:45.761Z,12.10
2019-03-31T13:37:15.772Z,12.20
2019-03-31T13:39:46.844Z,12.20
2019-03-31T13:42:16.804Z,12.10
2019-03-31T13:44:46.955Z,12.00
2019-03-31T13:47:16.941Z,12.10
2019-03-31T13:49:46.907Z,11.90
2019-03-31T13:52:16.900Z,11.70
2019-03-31T13:54:46.844Z,11.70
2019-03-31T13:57:17.284Z,11.70
2019-03-31T13:59:47.464Z,11.70
2019-03-31T14:02:17.442Z,11.60
2019-03-31T14:04:51.870Z,11.60
2019-03-31T14:07:19.086Z,11.60
2019-03-31T14:09:49.047Z,11.50
2019-03-31T14:12:19.027Z,11.50
2019-03-31T14:14:48.990Z,11.60
2019-03-31T14:17:18.972Z,11.40
2019-03-31T14:19:48.922Z,11.40
2019-03-31T14:22:18.906Z,11.40
2019-03-31T14:24:49.073Z,11.50
2019-03-31T14:27:19.051Z,11.40
2019-03-31T14:29:49.006Z,11.40
2019-03-31T14:32:19.023Z,11.60
2019-03-31T14:34:48.983Z,11.70
2019-03-31T14:37:20.045Z,11.70
2019-03-31T14:39:50.007Z,11.80
2019-03-31T14:42:19.983Z,11.90
2019-03-31T14:44:49.938Z,11.90
2019-03-31T14:47:19.929Z,12.00
2019-03-31T14:49:49.886Z,12.00
2019-03-31T14:52:27.196Z,12.00
2019-03-31T14:54:51.487Z,11.90
2019-03-31T14:57:21.462Z,11.70
2019-03-31T14:59:51.483Z,11.50
2019-03-31T15:02:21.468Z,11.40
2019-03-31T15:04:51.423Z,11.40
2019-03-31T15:07:21.455Z,11.40
2019-03-31T15:09:51.434Z,11.30
2019-03-31T15:12:21.492Z,11.30
2019-03-31T15:14:51.475Z,11.30
2019-03-31T15:17:21.722Z,11.20
2019-03-31T15:19:51.682Z,11.30
2019-03-31T15:22:21.767Z,11.30
2019-03-31T15:24:51.731Z,11.20
2019-03-31T15:27:21.806Z,11.10
2019-03-31T15:29:51.787Z,11.10
2019-03-31T15:32:21.834Z,11.10
2019-03-31T15:34:51.828Z,11.10
2019-03-31T15:37:21.877Z,11.20
2019-03-31T15:39:51.850Z,11.10
2019-03-31T15:42:21.836Z,11.20
2019-03-31T15:44:51.791Z,11.20
2019-03-31T15:47:21.838Z,11.20
2019-03-31T15:49:51.793Z,11.10
2019-03-31T15:52:21.822Z,11.10
2019-03-31T15:54:51.763Z,11.00
2019-03-31T15:57:21.712Z,11.00
2019-03-31T15:59:53.003Z,11.00
2019-03-31T16:02:24.624Z,11.00
2019-03-31T16:04:55.669Z,10.90
2019-03-31T16:07:25.646Z,10.90
2019-03-31T16:09:55.600Z,10.80
2019-03-31T16:12:25.570Z,10.80
2019-03-31T16:14:55.527Z,10.80
2019-03-31T16:17:25.539Z,10.80
2019-03-31T16:19:55.497Z,10.70
2019-03-31T16:22:25.569Z,10.70
2019-03-31T16:24:59.851Z,10.70
2019-03-31T16:27:29.830Z,10.80
2019-03-31T16:29:59.786Z,10.70
2019-03-31T16:32:29.767Z,10.70
2019-03-31T16:34:59.724Z,10.70
2019-03-31T16:37:29.778Z,10.60
2019-03-31T16:39:59.764Z,10.60
2019-03-31T16:42:29.747Z,10.50
2019-03-31T16:44:59.700Z,10.50
2019-03-31T16:47:29.665Z,10.40
2019-03-31T16:49:59.627Z,10.50
2019-03-31T16:52:29.600Z,10.40
2019-03-31T16:54:59.550Z,10.40
2019-03-31T16:57:29.620Z,10.40
2019-03-31T16:59:59.636Z,10.40
2019-03-31T17:02:29.551Z,10.30
2019-03-31T17:04:59.493Z,10.30
2019-03-31T17:07:30.439Z,10.20
2019-03-31T17:10:00.548Z,10.20
2019-03-31T17:12:30.471Z,10.10
2019-03-31T17:15:00.417Z,10.00
2019-03-31T17:17:30.387Z,10.00
2019-03-31T17:20:00.514Z,9.90
2019-03-31T17:22:30.616Z,9.80
2019-03-31T17:25:00.550Z,9.80
2019-03-31T17:27:30.539Z,9.70
2019-03-31T17:30:00.484Z,9.60
2019-03-31T17:32:30.467Z,9.50
2019-03-31T17:35:00.408Z,9.50
2019-03-31T17:37:30.362Z,9.40
2019-03-31T17:40:06.489Z,9.30
2019-03-31T17:42:32.070Z,9.20
2019-03-31T17:45:02.042Z,9.20
2019-03-31T17:47:32.011Z,9.20
2019-03-31T17:50:01.960Z,9.10
2019-03-31T17:52:31.949Z,9.00
2019-03-31T17:55:01.899Z,9.00
2019-03-31T17:57:31.874Z,9.00
2019-03-31T18:00:01.830Z,9.00
2019-03-31T18:02:32.530Z,9.00
2019-03-31T18:05:02.497Z,9.00
2019-03-31T18:07:32.465Z,8.90
2019-03-31T18:10:02.410Z,8.70
2019-03-31T18:12:32.392Z,8.60
2019-03-31T18:15:02.402Z,8.60
2019-03-31T18:17:32.349Z,8.50
2019-03-31T18:20:02.466Z,8.40
2019-03-31T18:22:32.705Z,8.40
2019-03-31T18:25:02.661Z,8.30
2019-03-31T18:27:32.641Z,8.20
2019-03-31T18:30:02.752Z,8.20
2019-03-31T18:32:32.787Z,7.90
2019-03-31T18:35:02.740Z,7.90
2019-03-31T18:37:33.775Z,7.80
2019-03-31T18:40:05.263Z,7.70
2019-03-31T18:42:35.227Z,7.60
2019-03-31T18:45:08.342Z,7.50
2019-03-31T18:47:38.312Z,7.40
2019-03-31T18:50:08.913Z,7.30
2019-03-31T18:52:38.884Z,7.30
2019-03-31T18:55:23.091Z,7.20
2019-03-31T18:58:06.657Z,7.10
2019-03-31T19:00:54.485Z,7.10
2019-03-31T19:03:42.416Z,7.00
2019-03-31T19:06:17.435Z,7.00
2019-03-31T19:08:54.999Z,6.90
2019-03-31T19:11:26.594Z,6.80
2019-03-31T19:13:58.246Z,6.80
2019-03-31T19:16:36.212Z,6.70
2019-03-31T19:19:19.636Z,6.70
2019-03-31T19:21:51.219Z,6.70
2019-03-31T19:24:22.833Z,6.70
2019-03-31T19:27:12.468Z,6.60
2019-03-31T19:29:44.078Z,6.60
2019-03-31T19:32:24.583Z,6.50
2019-03-31T19:34:59.168Z,6.50
2019-03-31T19:37:30.835Z,6.40
2019-03-31T19:40:11.456Z,6.40
2019-03-31T19:42:54.937Z,6.40
2019-03-31T19:45:29.476Z,6.40
2019-03-31T19:48:04.138Z,6.30
2019-03-31T19:50:38.626Z,6.30
2019-03-31T19:53:26.419Z,6.20
2019-03-31T19:56:16.290Z,6.20
2019-03-31T19:59:04.571Z,6.00
2019-03-31T20:01:36.326Z,5.90
2019-03-31T20:04:13.686Z,5.90
2019-03-31T20:06:54.343Z,5.90
2019-03-31T20:09:42.155Z,5.70
2019-03-31T20:12:16.475Z,5.70
2019-03-31T20:14:51.040Z,5.60
2019-03-31T20:17:22.632Z,5.60
2019-03-31T20:20:09.111Z,5.60
2019-03-31T20:22:58.878Z,5.60
2019-03-31T20:25:46.670Z,5.60
2019-03-31T20:28:18.280Z,5.50
2019-03-31T20:30:49.867Z,5.50
2019-03-31T20:33:37.714Z,5.40
2019-03-31T20:36:21.455Z,5.40
2019-03-31T20:38:55.575Z,5.30
2019-03-31T20:41:29.244Z,5.10
2019-03-31T20:43:59.256Z,5.10
2019-03-31T20:46:29.199Z,5.00
2019-03-31T20:48:59.168Z,5.10
2019-03-31T20:51:29.115Z,4.80
2019-03-31T20:53:59.084Z,4.70
2019-03-31T20:56:29.069Z,4.70
2019-03-31T20:59:00.083Z,4.60
2019-03-31T21:01:30.042Z,4.60
2019-03-31T21:04:00.016Z,4.60
2019-03-31T21:06:29.955Z,4.70
2019-03-31T21:08:59.922Z,4.60
2019-03-31T21:11:29.870Z,4.60
2019-03-31T21:13:59.843Z,4.60
2019-03-31T21:16:29.791Z,4.70
2019-03-31T21:18:59.754Z,4.70
2019-03-31T21:21:29.695Z,4.60
2019-03-31T21:23:59.730Z,4.50
2019-03-31T21:26:29.684Z,4.40
2019-03-31T21:28:59.662Z,4.50
2019-03-31T21:31:29.603Z,4.60
2019-03-31T21:33:59.575Z,4.60
2019-03-31T21:36:29.528Z,4.60
2019-03-31T21:38:59.503Z,4.60
2019-03-31T21:41:29.447Z,4.70
2019-03-31T21:43:59.415Z,4.70
2019-03-31T21:46:29.362Z,4.60
2019-03-31T21:48:59.335Z,4.60
2019-03-31T21:51:29.278Z,4.50
2019-03-31T21:53:59.257Z,4.50
2019-03-31T21:56:29.204Z,4.50
2019-03-31T21:58:59.170Z,4.40
2019-03-31T22:01:29.115Z,4.40
2019-03-31T22:04:00.155Z,4.50
2019-03-31T22:06:31.165Z,4.40
2019-03-31T22:09:01.131Z,4.40
2019-03-31T22:11:32.674Z,4.40
2019-03-31T22:14:02.647Z,4.40
2019-03-31T22:16:32.588Z,4.40
2019-03-31T22:19:02.559Z,4.40
2019-03-31T22:21:32.502Z,4.30
2019-03-31T22:24:02.479Z,4.20
2019-03-31T22:26:32.500Z,4.20
2019-03-31T22:29:02.472Z,4.20
2019-03-31T22:31:32.413Z,4.30
2019-03-31T22:34:02.500Z,4.10
2019-03-31T22:36:32.683Z,4.00
2019-03-31T22:39:02.658Z,4.00
2019-03-31T22:41:34.080Z,3.80
2019-03-31T22:44:04.311Z,3.80
2019-03-31T22:46:34.259Z,3.90
2019-03-31T22:49:04.308Z,3.90
2019-03-31T22:51:34.238Z,3.90
2019-03-31T22:54:04.228Z,3.90
2019-03-31T22:56:34.170Z,3.90
2019-03-31T22:59:04.147Z,3.90
2019-03-31T23:01:34.110Z,3.90
2019-03-31T23:04:04.129Z,3.80
2019-03-31T23:06:34.097Z,3.80
2019-03-31T23:09:06.584Z,3.80
2019-03-31T23:11:36.561Z,3.60
2019-03-31T23:14:06.504Z,3.60
2019-03-31T23:16:36.538Z,3.50
2019-03-31T23:19:06.488Z,3.50
2019-03-31T23:21:36.460Z,3.50
2019-03-31T23:24:06.472Z,3.50
2019-03-31T23:26:36.456Z,3.40
2019-03-31T23:29:06.404Z,3.50
2019-03-31T23:31:36.375Z,3.50
2019-03-31T23:34:06.323Z,3.40
2019-03-31T23:36:36.290Z,3.40
2019-03-31T23:39:07.673Z,3.30
2019-03-31T23:41:37.638Z,3.30
2019-03-31T23:44:07.589Z,3.40
2019-03-31T23:46:37.564Z,3.30
2019-03-31T23:49:07.502Z,3.20
2019-03-31T23:51:37.476Z,3.20
2019-03-31T23:54:07.416Z,3.20
2019-03-31T23:56:37.394Z,3.10
2019-03-31T23:59:07.335Z,3.00
